Time;durP1;ratioP1;P1;durP2;ratioP2;P2;SDS_P1;SDS_P2;PMS_P1;PMS_P2;Temp;Humidity;BMP_temperature;BMP_pressure;BME280_temperature;BME280_humidity;BME280_pressure;Samples;Min_cycle;Max_cycle;Signal;HPM_P1;HPM_P2
2022/09/22 00:00:57;;;;;;;5.03;1.30;;;8.40;99.90;;;;;;5020130;28;20136;-75
2022/09/22 00:03:24;;;;;;;4.85;1.20;;;8.40;99.90;;;;;;5036127;28;20090;-74
2022/09/22 00:06:02;;;;;;;3.88;1.25;;;8.50;99.90;;;;;;5053186;28;20099;-75
2022/09/22 00:08:31;;;;;;;4.68;1.20;;;8.50;99.90;;;;;;5021355;28;20053;-75
2022/09/22 00:11:07;;;;;;;4.03;1.40;;;8.50;99.90;;;;;;5031638;28;20059;-74
2022/09/22 00:13:34;;;;;;;3.25;1.33;;;8.40;99.90;;;;;;5042692;28;20045;-74
2022/09/22 00:16:01;;;;;;;5.25;1.30;;;8.40;99.90;;;;;;5019659;28;20045;-74
2022/09/22 00:18:27;;;;;;;4.78;1.45;;;8.40;99.90;;;;;;5032923;28;20060;-75
2022/09/22 00:20:54;;;;;;;4.05;1.20;;;8.30;99.90;;;;;;5052933;28;20495;-75
2022/09/22 00:23:24;;;;;;;4.35;1.30;;;8.90;99.90;;;;;;5052570;28;20040;-75
2022/09/22 00:25:49;;;;;;;4.65;1.25;;;8.20;99.90;;;;;;5039948;28;20358;-75
2022/09/22 00:28:15;;;;;;;4.85;1.30;;;8.30;99.90;;;;;;5035861;28;20044;-76
2022/09/22 00:30:41;;;;;;;4.50;1.20;;;8.30;99.90;;;;;;5036289;28;20037;-75
2022/09/22 00:33:08;;;;;;;4.03;1.27;;;8.20;99.90;;;;;;5035696;28;20040;-75
2022/09/22 00:35:37;;;;;;;4.20;1.10;;;8.20;99.90;;;;;;5035368;28;20435;-75
2022/09/22 00:38:04;;;;;;;5.15;1.38;;;8.20;99.90;;;;;;5034716;28;20076;-75
2022/09/22 00:40:32;;;;;;;5.72;1.35;;;8.20;99.90;;;;;;5035898;28;20048;-75
2022/09/22 00:43:14;;;;;;;4.38;1.20;;;8.10;99.90;;;;;;5035743;28;20128;-74
2022/09/22 00:45:40;;;;;;;3.45;1.13;;;8.00;99.90;;;;;;5038145;28;20128;-75
2022/09/22 00:48:06;;;;;;;5.07;1.30;;;8.00;99.90;;;;;;5009487;28;20123;-75
2022/09/22 00:50:32;;;;;;;3.83;1.20;;;8.00;99.90;;;;;;5048829;28;20053;-75
2022/09/22 00:53:04;;;;;;;3.78;1.23;;;8.00;99.90;;;;;;5051284;28;20094;-75
2022/09/22 00:55:38;;;;;;;4.65;1.23;;;8.00;99.90;;;;;;5035133;28;20057;-75
2022/09/22 00:58:08;;;;;;;4.68;1.20;;;8.00;99.90;;;;;;5016012;28;20041;-74
2022/09/22 01:00:34;;;;;;;4.38;1.25;;;8.00;99.90;;;;;;5013603;28;20468;-75
2022/09/22 01:03:02;;;;;;;3.85;1.10;;;8.00;99.90;;;;;;4999368;28;20033;-75
2022/09/22 01:05:29;;;;;;;5.38;1.20;;;8.00;99.90;;;;;;5027902;28;20184;-75
2022/09/22 01:07:55;;;;;;;3.83;1.15;;;7.90;99.90;;;;;;5037134;28;20037;-76
2022/09/22 01:10:22;;;;;;;4.05;1.10;;;8.00;99.90;;;;;;5042581;28;20094;-75
2022/09/22 01:12:57;;;;;;;3.08;1.10;;;8.00;99.90;;;;;;5049107;28;20044;-77
2022/09/22 01:15:36;;;;;;;3.47;1.10;;;7.90;99.90;;;;;;5019255;28;20052;-75
2022/09/22 01:18:16;;;;;;;3.85;1.10;;;7.90;99.90;;;;;;5034762;28;20040;-75
2022/09/22 01:21:18;;;;;;;4.68;1.25;;;7.90;99.90;;;;;;5015941;28;20096;-75
2022/09/22 01:23:47;;;;;;;5.17;1.20;;;7.90;99.90;;;;;;5018213;28;20051;-74
2022/09/22 01:26:55;;;;;;;3.08;1.15;;;7.90;99.90;;;;;;5052761;28;20049;-75
2022/09/22 01:29:29;;;;;;;4.13;1.10;;;7.80;99.90;;;;;;5028124;28;20099;-74
2022/09/22 01:32:22;;;;;;;4.53;1.15;;;7.80;99.90;;;;;;5015195;28;20044;-74
2022/09/22 01:35:03;;;;;;;4.20;1.20;;;7.80;99.90;;;;;;5028787;28;20069;-82
2022/09/22 01:37:37;;;;;;;3.67;1.20;;;7.80;99.90;;;;;;5023081;28;20052;-75
2022/09/22 01:40:11;;;;;;;5.05;1.30;;;7.80;99.90;;;;;;5035212;28;20412;-75
2022/09/22 01:42:59;;;;;;;4.25;1.17;;;7.80;99.90;;;;;;5015365;28;20053;-74
2022/09/22 01:45:29;;;;;;;5.07;1.20;;;7.80;99.90;;;;;;5020178;28;20129;-74
2022/09/22 01:48:05;;;;;;;4.80;1.30;;;7.80;99.90;;;;;;5036898;28;20465;-74
2022/09/22 01:50:43;;;;;;;4.45;1.20;;;7.80;99.90;;;;;;5055465;28;20052;-73
2022/09/22 01:53:13;;;;;;;3.92;1.15;;;7.80;99.90;;;;;;5038534;28;20051;-73
2022/09/22 01:55:43;;;;;;;4.45;1.20;;;7.80;99.90;;;;;;5038777;28;20388;-74
2022/09/22 01:58:13;;;;;;;3.72;1.20;;;8.10;99.90;;;;;;5035034;28;20049;-74
2022/09/22 02:00:44;;;;;;;3.72;1.23;;;7.80;99.90;;;;;;5032591;28;20053;-74
2022/09/22 02:03:16;;;;;;;6.15;1.65;;;7.80;99.90;;;;;;5056334;28;20047;-74
2022/09/22 02:05:47;;;;;;;5.80;1.50;;;7.90;99.90;;;;;;5036969;28;20102;-73
2022/09/22 02:08:20;;;;;;;4.20;1.20;;;7.80;99.90;;;;;;5038660;28;20049;-74
2022/09/22 02:10:47;;;;;;;4.10;1.20;;;7.70;99.90;;;;;;5038137;28;20048;-73
2022/09/22 02:13:14;;;;;;;3.40;1.20;;;7.60;99.90;;;;;;5037814;28;20120;-74
2022/09/22 02:18:41;;;;;;;4.20;1.20;;;7.60;99.90;;;;;;5056106;28;20051;-74
2022/09/22 02:21:07;;;;;;;4.05;1.40;;;7.50;99.90;;;;;;5024540;28;20040;-74
2022/09/22 02:23:33;;;;;;;4.88;1.30;;;7.50;99.90;;;;;;5054931;28;20431;-74
2022/09/22 02:26:00;;;;;;;4.88;1.33;;;7.50;99.90;;;;;;5017059;28;20461;-74
2022/09/22 02:28:28;;;;;;;4.43;1.45;;;7.50;99.90;;;;;;5028600;28;20057;-75
2022/09/22 02:30:57;;;;;;;4.65;1.20;;;7.50;99.90;;;;;;5037049;28;20044;-73
2022/09/22 02:33:25;;;;;;;5.15;1.38;;;7.50;99.90;;;;;;5038071;28;20127;-73
2022/09/22 02:36:05;;;;;;;4.13;1.40;;;7.40;99.90;;;;;;5048778;28;20045;-74
2022/09/22 02:38:56;;;;;;;4.88;1.27;;;7.40;99.90;;;;;;5024055;28;20052;-74
2022/09/22 02:41:35;;;;;;;3.92;1.20;;;7.40;99.90;;;;;;5048090;28;20045;-75
2022/09/22 02:44:21;;;;;;;3.17;1.20;;;7.50;99.90;;;;;;5038083;28;20120;-74
2022/09/22 02:47:02;;;;;;;5.50;1.48;;;7.40;99.90;;;;;;5037015;28;20055;-74
2022/09/22 02:49:29;;;;;;;4.53;1.23;;;7.50;99.90;;;;;;5037863;28;20049;-75
2022/09/22 02:51:55;;;;;;;3.72;1.38;;;7.40;99.90;;;;;;5037184;28;20380;-74
2022/09/22 02:54:21;;;;;;;5.05;1.30;;;7.60;99.90;;;;;;5037682;28;20123;-74
2022/09/22 02:56:47;;;;;;;4.25;1.23;;;7.50;99.90;;;;;;5036933;28;20381;-73
2022/09/22 02:59:13;;;;;;;3.85;1.30;;;7.40;99.90;;;;;;5007459;28;20046;-74
2022/09/22 03:01:39;;;;;;;3.58;1.30;;;7.50;99.90;;;;;;5050441;28;20048;-73
2022/09/22 03:04:05;;;;;;;4.70;1.40;;;7.40;99.90;;;;;;5037345;28;20057;-75
2022/09/22 03:06:31;;;;;;;3.97;1.38;;;7.40;99.90;;;;;;5055096;28;20037;-73
2022/09/22 03:08:56;;;;;;;4.20;1.35;;;7.40;99.90;;;;;;5054997;28;20507;-73
2022/09/22 03:11:22;;;;;;;3.85;1.30;;;7.60;99.90;;;;;;5054900;28;20575;-74
2022/09/22 03:13:48;;;;;;;5.45;1.30;;;7.30;99.90;;;;;;5019988;28;20495;-73
2022/09/22 03:16:14;;;;;;;3.65;1.30;;;7.30;99.90;;;;;;5036352;28;20128;-73
2022/09/22 03:18:39;;;;;;;6.40;1.42;;;7.30;99.90;;;;;;5054368;28;20104;-73
2022/09/22 03:21:05;;;;;;;4.85;1.30;;;7.20;99.90;;;;;;5037236;28;20049;-73
2022/09/22 03:23:31;;;;;;;4.68;1.40;;;7.30;99.90;;;;;;5054768;28;20123;-74
2022/09/22 03:25:56;;;;;;;4.60;1.80;;;7.30;99.90;;;;;;5019613;28;20044;-75
2022/09/22 03:28:22;;;;;;;5.28;1.67;;;7.20;99.90;;;;;;5055036;28;20072;-73
2022/09/22 03:30:47;;;;;;;4.00;1.60;;;7.20;99.90;;;;;;5019661;28;20457;-73
2022/09/22 03:33:13;;;;;;;5.45;2.00;;;7.20;99.90;;;;;;5036887;28;20087;-73
2022/09/22 03:35:40;;;;;;;7.38;3.05;;;7.20;99.90;;;;;;5036377;28;20124;-73
2022/09/22 03:38:05;;;;;;;6.00;2.40;;;7.20;99.90;;;;;;5020546;28;20412;-74
2022/09/22 03:40:31;;;;;;;5.40;2.30;;;7.20;99.90;;;;;;5054445;28;20053;-74
2022/09/22 03:42:57;;;;;;;5.97;2.03;;;7.20;99.90;;;;;;5054395;28;20048;-74
2022/09/22 03:45:23;;;;;;;6.00;2.17;;;7.10;99.90;;;;;;5019262;28;20075;-74
2022/09/22 03:47:49;;;;;;;5.47;1.92;;;7.20;99.90;;;;;;5036214;28;20124;-75
2022/09/22 03:50:15;;;;;;;5.40;2.15;;;7.20;99.90;;;;;;5036765;28;20112;-74
2022/09/22 03:52:42;;;;;;;5.03;2.30;;;7.20;99.90;;;;;;5036491;28;20045;-74
2022/09/22 03:55:09;;;;;;;5.75;2.22;;;7.30;99.90;;;;;;5053508;28;20461;-74
2022/09/22 03:57:35;;;;;;;6.25;2.33;;;7.40;99.90;;;;;;5053264;28;20044;-75
2022/09/22 04:00:01;;;;;;;6.32;2.55;;;7.20;99.90;;;;;;5035726;28;20373;-82
2022/09/22 04:02:27;;;;;;;5.00;2.40;;;7.20;99.90;;;;;;5019672;28;20084;-74
2022/09/22 04:04:52;;;;;;;7.45;3.85;;;7.20;99.90;;;;;;5053678;28;20147;-74
2022/09/22 04:07:18;;;;;;;5.63;2.53;;;7.20;99.90;;;;;;5053722;28;20496;-74
2022/09/22 04:09:44;;;;;;;5.15;2.60;;;7.20;99.90;;;;;;5036325;28;20380;-74
2022/09/22 04:12:09;;;;;;;6.57;2.75;;;7.20;99.90;;;;;;5053567;28;20385;-74
2022/09/22 04:14:35;;;;;;;6.75;2.97;;;7.20;99.90;;;;;;5053031;28;20040;-73
2022/09/22 04:17:02;;;;;;;5.60;2.67;;;7.20;99.90;;;;;;5034712;28;20044;-74
2022/09/22 04:19:27;;;;;;;5.68;2.47;;;7.10;99.90;;;;;;5053890;28;20044;-77
2022/09/22 04:21:55;;;;;;;5.50;2.33;;;7.10;99.90;;;;;;5035425;28;20488;-74
2022/09/22 04:24:23;;;;;;;4.82;2.30;;;7.00;99.90;;;;;;5035920;28;20361;-73
2022/09/22 04:26:48;;;;;;;5.70;2.40;;;7.00;99.90;;;;;;5022882;28;20380;-74
2022/09/22 04:29:14;;;;;;;5.47;2.53;;;7.00;99.90;;;;;;5035497;28;20039;-74
2022/09/22 04:31:40;;;;;;;5.32;2.10;;;7.10;99.90;;;;;;5034545;28;20123;-73
2022/09/22 04:34:06;;;;;;;5.18;2.30;;;7.00;99.90;;;;;;5035339;28;20040;-74
2022/09/22 04:36:31;;;;;;;6.38;2.50;;;7.00;99.90;;;;;;5035789;28;20079;-74
2022/09/22 04:38:57;;;;;;;5.15;2.67;;;7.00;99.90;;;;;;5035824;28;20480;-73
2022/09/22 04:41:23;;;;;;;5.10;2.40;;;7.10;99.90;;;;;;5040165;28;20384;-73
2022/09/22 04:43:48;;;;;;;5.80;2.40;;;7.00;99.90;;;;;;5035768;28;20094;-73
2022/09/22 04:46:14;;;;;;;5.57;2.83;;;7.00;99.90;;;;;;5034562;28;20040;-75
2022/09/22 04:48:40;;;;;;;5.60;2.30;;;7.00;99.90;;;;;;5035323;28;20045;-74
2022/09/22 04:51:05;;;;;;;5.75;2.17;;;7.00;99.90;;;;;;5053027;28;20052;-74
2022/09/22 04:53:31;;;;;;;5.53;2.38;;;7.00;99.90;;;;;;5019388;28;20044;-74
2022/09/22 04:55:57;;;;;;;4.82;2.55;;;7.00;99.90;;;;;;5053104;28;20041;-74
2022/09/22 04:58:22;;;;;;;4.75;2.20;;;6.90;99.90;;;;;;5052654;28;20037;-74
2022/09/22 05:00:48;;;;;;;5.30;2.20;;;7.00;99.90;;;;;;5052513;28;20163;-74
2022/09/22 05:03:14;;;;;;;3.83;1.90;;;6.90;99.90;;;;;;5018832;28;20037;-74
2022/09/22 05:05:40;;;;;;;5.28;1.90;;;7.00;99.90;;;;;;5035017;28;20048;-74
2022/09/22 05:08:06;;;;;;;4.65;2.40;;;6.90;99.90;;;;;;5035312;28;20037;-74
2022/09/22 05:10:34;;;;;;;4.82;2.38;;;6.90;99.90;;;;;;5032524;28;20123;-74
2022/09/22 05:12:59;;;;;;;5.47;2.30;;;6.90;99.90;;;;;;5014857;28;20088;-74
2022/09/22 05:15:25;;;;;;;5.40;2.80;;;6.90;99.90;;;;;;5016765;28;20445;-74
2022/09/22 05:17:52;;;;;;;4.30;2.20;;;6.90;99.90;;;;;;5017677;28;20112;-76
2022/09/22 05:20:20;;;;;;;4.95;2.55;;;7.00;99.90;;;;;;5015558;28;20054;-74
2022/09/22 05:22:46;;;;;;;6.63;2.60;;;6.80;99.90;;;;;;5033597;28;20076;-74
2022/09/22 05:25:15;;;;;;;5.30;2.40;;;6.80;99.90;;;;;;5041582;28;20033;-75
2022/09/22 05:27:46;;;;;;;5.32;2.55;;;6.80;99.90;;;;;;5029750;28;20070;-75
2022/09/22 05:30:12;;;;;;;4.93;2.38;;;6.80;99.90;;;;;;5030505;28;20037;-74
2022/09/22 05:32:40;;;;;;;4.53;2.58;;;6.80;99.90;;;;;;5031970;28;20044;-75
2022/09/22 05:35:07;;;;;;;5.47;2.60;;;6.80;99.90;;;;;;5017100;28;20049;-75
2022/09/22 05:37:32;;;;;;;5.75;2.65;;;6.80;99.90;;;;;;5022225;28;20047;-75
2022/09/22 05:39:58;;;;;;;5.57;2.78;;;6.80;99.90;;;;;;5014624;28;20128;-75
2022/09/22 05:42:23;;;;;;;5.03;3.15;;;6.80;99.90;;;;;;5047848;28;20056;-75
2022/09/22 05:44:49;;;;;;;6.10;3.45;;;6.80;99.90;;;;;;5033048;28;20048;-75
2022/09/22 05:47:15;;;;;;;6.63;4.05;;;6.90;99.90;;;;;;5027988;28;20121;-77
2022/09/22 05:49:40;;;;;;;6.80;3.15;;;6.80;99.90;;;;;;5029717;28;20079;-76
2022/09/22 05:52:06;;;;;;;6.47;2.90;;;6.80;99.90;;;;;;5029180;28;20106;-76
2022/09/22 05:54:32;;;;;;;5.75;3.20;;;6.80;99.90;;;;;;5034641;28;20041;-75
2022/09/22 05:56:57;;;;;;;5.53;3.40;;;6.80;99.90;;;;;;5027780;28;20045;-75
2022/09/22 05:59:23;;;;;;;5.45;3.30;;;6.80;99.90;;;;;;5045653;28;20043;-75
2022/09/22 06:01:49;;;;;;;6.22;3.83;;;6.80;99.90;;;;;;5051446;28;20124;-75
2022/09/22 06:04:14;;;;;;;7.03;3.97;;;6.90;99.90;;;;;;5034573;28;20091;-75
2022/09/22 06:06:40;;;;;;;6.85;3.80;;;6.90;99.90;;;;;;5051954;28;20487;-75
2022/09/22 06:09:07;;;;;;;5.53;3.50;;;6.90;99.90;;;;;;5017790;28;20041;-75
2022/09/22 06:11:32;;;;;;;8.93;6.20;;;7.10;99.90;;;;;;5034279;28;20075;-76
2022/09/22 06:13:58;;;;;;;7.95;5.80;;;6.90;99.90;;;;;;5033694;28;20045;-75
2022/09/22 06:16:24;;;;;;;7.40;5.78;;;6.90;99.90;;;;;;5033635;28;20041;-76
2022/09/22 06:18:49;;;;;;;7.35;5.22;;;6.80;99.90;;;;;;5038794;28;20083;-76
2022/09/22 06:21:16;;;;;;;8.52;5.68;;;7.00;99.90;;;;;;5036844;28;20478;-76
2022/09/22 06:23:42;;;;;;;8.55;6.40;;;6.80;99.90;;;;;;5031210;28;20071;-75
2022/09/22 06:26:08;;;;;;;9.25;6.68;;;7.00;99.90;;;;;;5035379;28;20086;-75
2022/09/22 06:28:34;;;;;;;8.88;6.97;;;7.40;99.90;;;;;;5016404;28;20041;-76
2022/09/22 06:31:00;;;;;;;8.38;5.63;;;7.90;99.90;;;;;;5027054;28;20484;-76
2022/09/22 06:33:29;;;;;;;10.05;6.88;;;8.50;99.90;;;;;;5035251;28;20038;-76
2022/09/22 06:35:57;;;;;;;9.52;7.18;;;9.00;99.90;;;;;;5034952;28;20087;-76
2022/09/22 06:38:23;;;;;;;10.48;8.07;;;9.50;99.90;;;;;;5032396;28;20116;-75
2022/09/22 06:40:50;;;;;;;11.18;8.98;;;10.00;99.90;;;;;;5033050;28;20042;-75
2022/09/22 06:43:24;;;;;;;18.38;13.15;;;10.50;99.90;;;;;;5031242;28;20084;-76
2022/09/22 06:45:50;;;;;;;16.75;12.60;;;10.90;99.90;;;;;;5032967;28;20468;-74
2022/09/22 06:48:17;;;;;;;16.63;11.77;;;11.50;99.90;;;;;;5025883;28;20052;-77
2022/09/22 06:50:47;;;;;;;21.17;14.13;;;11.90;99.90;;;;;;5018175;28;20052;-77
2022/09/22 06:53:13;;;;;;;21.23;13.68;;;12.10;99.90;;;;;;5020698;28;20179;-76
2022/09/22 06:55:42;;;;;;;18.13;12.48;;;12.20;99.90;;;;;;5035429;28;20083;-77
2022/09/22 06:58:09;;;;;;;20.02;13.13;;;12.50;99.90;;;;;;5030973;28;20377;-75
2022/09/22 07:00:35;;;;;;;16.65;11.82;;;12.60;99.90;;;;;;5033603;28;20435;-76
2022/09/22 07:03:23;;;;;;;18.30;13.30;;;12.70;99.90;;;;;;5033723;28;20053;-77
2022/09/22 07:06:00;;;;;;;18.17;12.75;;;12.40;99.90;;;;;;5021064;28;20124;-76
2022/09/22 07:08:28;;;;;;;19.38;13.63;;;12.00;99.90;;;;;;5031718;28;20497;-82
2022/09/22 07:10:55;;;;;;;18.83;13.25;;;11.70;99.90;;;;;;5028999;28;20045;-77
2022/09/22 07:13:22;;;;;;;18.20;12.25;;;11.60;99.90;;;;;;5014823;28;20060;-75
2022/09/22 07:15:47;;;;;;;18.10;12.13;;;11.40;99.90;;;;;;5035431;28;20044;-77
2022/09/22 07:18:14;;;;;;;20.83;13.00;;;11.30;99.90;;;;;;5030385;28;20500;-76
2022/09/22 07:20:39;;;;;;;17.25;12.60;;;11.30;99.90;;;;;;5027403;28;20068;-76
2022/09/22 07:23:20;;;;;;;20.85;12.75;;;11.30;99.90;;;;;;5051658;28;20484;-75
2022/09/22 07:25:55;;;;;;;19.85;13.48;;;11.20;99.90;;;;;;4998012;28;20049;-76
2022/09/22 07:28:22;;;;;;;20.02;13.20;;;11.20;99.90;;;;;;5030259;28;20045;-76
2022/09/22 07:30:48;;;;;;;15.88;12.25;;;11.20;99.90;;;;;;5049654;28;20047;-78
2022/09/22 07:33:14;;;;;;;19.17;12.90;;;11.20;99.90;;;;;;5032675;28;20365;-84
2022/09/22 07:35:39;;;;;;;19.20;11.82;;;11.20;99.90;;;;;;5043942;28;20099;-78
2022/09/22 07:38:05;;;;;;;19.05;11.75;;;11.20;99.90;;;;;;5034982;28;20052;-78
2022/09/22 07:40:31;;;;;;;20.52;12.30;;;11.30;99.90;;;;;;5007280;28;20709;-81
2022/09/22 07:42:57;;;;;;;16.13;11.23;;;11.30;99.90;;;;;;5051776;28;20071;-82
2022/09/22 07:45:22;;;;;;;15.10;10.85;;;11.30;99.90;;;;;;5026023;28;20045;-80
2022/09/22 07:50:53;;;;;;;15.32;10.15;;;11.40;99.90;;;;;;5023743;28;20294;-77
2022/09/22 07:53:19;;;;;;;14.57;9.27;;;11.40;99.90;;;;;;5033063;28;20048;-81
2022/09/22 07:55:46;;;;;;;16.38;9.48;;;11.50;99.90;;;;;;5009908;28;20034;-80
2022/09/22 07:58:12;;;;;;;15.75;9.35;;;11.60;99.90;;;;;;5033398;28;20091;-79
2022/09/22 08:00:38;;;;;;;16.17;7.93;;;11.70;99.90;;;;;;5016782;28;20488;-81
2022/09/22 08:03:03;;;;;;;15.10;8.80;;;11.80;99.90;;;;;;5018370;28;20037;-77
2022/09/22 08:05:29;;;;;;;14.10;8.68;;;11.80;99.90;;;;;;5052119;28;20047;-80
2022/09/22 08:08:01;;;;;;;15.70;8.50;;;11.90;99.90;;;;;;5052302;28;20032;-77
2022/09/22 08:10:26;;;;;;;14.60;8.27;;;12.00;99.90;;;;;;5027035;28;20183;-75
2022/09/22 08:12:56;;;;;;;13.57;8.00;;;12.10;99.90;;;;;;5035421;28;20464;-77
2022/09/22 08:15:22;;;;;;;13.85;7.32;;;12.20;99.90;;;;;;5033479;28;20107;-78
2022/09/22 08:17:49;;;;;;;13.68;7.82;;;12.30;99.90;;;;;;5008276;28;20041;-80
2022/09/22 08:20:15;;;;;;;12.52;7.13;;;12.40;99.90;;;;;;5031800;28;20053;-79
2022/09/22 08:22:42;;;;;;;13.82;7.10;;;12.50;99.90;;;;;;5052379;28;20071;-75
2022/09/22 08:25:11;;;;;;;11.60;6.93;;;12.60;99.90;;;;;;5034785;28;20053;-79
2022/09/22 08:27:38;;;;;;;11.07;6.70;;;12.70;99.90;;;;;;5010985;28;20126;-78
2022/09/22 08:30:06;;;;;;;11.93;6.20;;;12.80;99.90;;;;;;5051528;28;20044;-81
2022/09/22 08:32:35;;;;;;;10.75;6.15;;;12.90;99.90;;;;;;5034384;28;20092;-79
2022/09/22 08:35:02;;;;;;;14.15;6.50;;;13.20;99.90;;;;;;5034159;28;20045;-83
2022/09/22 08:37:31;;;;;;;12.13;6.05;;;13.50;99.90;;;;;;5034333;28;20071;-78
2022/09/22 08:39:57;;;;;;;10.02;5.30;;;13.70;99.90;;;;;;5052018;28;20048;-80
2022/09/22 08:42:27;;;;;;;9.48;5.20;;;13.80;99.90;;;;;;5033508;28;20042;-79
2022/09/22 08:44:59;;;;;;;10.55;5.00;;;14.00;99.90;;;;;;5034697;28;20076;-79
2022/09/22 08:53:42;;;;;;;9.57;4.30;;;14.80;99.90;;;;;;5032355;28;20053;-79
2022/09/22 08:56:24;;;;;;;10.85;4.00;;;15.00;99.90;;;;;;5032385;28;20493;-80
2022/09/22 08:59:13;;;;;;;10.65;3.83;;;15.30;99.90;;;;;;5027926;28;20031;-79
2022/09/22 09:01:45;;;;;;;8.88;3.80;;;15.40;99.90;;;;;;5024279;28;20477;-81
2022/09/22 09:04:29;;;;;;;12.98;3.85;;;15.60;99.90;;;;;;5023125;28;20136;-80
2022/09/22 09:07:42;;;;;;;10.13;3.60;;;15.80;99.90;;;;;;5049582;28;20061;-83
2022/09/22 09:10:18;;;;;;;;;;;15.90;99.90;;;;;;5006181;28;20064;-82
2022/09/22 09:13:05;;;;;;;8.27;2.90;;;16.10;99.90;;;;;;5033206;28;19966;-80
2022/09/22 09:15:32;;;;;;;8.18;3.03;;;16.20;98.90;;;;;;5030921;28;20052;-78
2022/09/22 09:18:04;;;;;;;7.78;2.80;;;16.30;99.40;;;;;;5049254;28;20065;-79
2022/09/22 09:20:45;;;;;;;8.95;3.05;;;16.50;99.80;;;;;;5049276;28;20527;-82
2022/09/22 09:23:17;;;;;;;6.60;2.58;;;16.60;99.10;;;;;;5017232;28;20388;-81
2022/09/22 09:25:46;;;;;;;6.22;2.22;;;16.70;97.50;;;;;;5033435;28;20037;-80
2022/09/22 09:28:17;;;;;;;6.10;2.42;;;16.80;95.80;;;;;;5033080;28;20424;-78
2022/09/22 09:30:57;;;;;;;6.50;2.50;;;16.80;97.00;;;;;;5016537;28;20110;-81
2022/09/22 09:33:30;;;;;;;6.75;2.38;;;16.90;96.10;;;;;;5030247;28;20041;-80
2022/09/22 09:35:57;;;;;;;8.85;2.78;;;17.00;97.80;;;;;;5009849;28;20045;-80
2022/09/22 09:38:28;;;;;;;6.60;2.30;;;17.10;97.90;;;;;;5051013;28;20461;-78
2022/09/22 09:41:08;;;;;;;6.65;2.20;;;17.30;97.50;;;;;;5033373;28;20049;-80
2022/09/22 09:43:36;;;;;;;8.73;2.20;;;17.40;96.40;;;;;;5034180;28;20379;-77
2022/09/22 09:46:10;;;;;;;7.32;2.08;;;17.50;93.90;;;;;;5011851;28;20353;-83
2022/09/22 09:48:57;;;;;;;6.85;2.03;;;17.60;93.50;;;;;;5033073;28;20049;-79
2022/09/22 09:51:23;;;;;;;8.07;2.20;;;17.60;94.00;;;;;;5033171;28;20460;-79
2022/09/22 09:53:49;;;;;;;9.70;2.38;;;17.70;92.40;;;;;;5032754;28;20055;-81
2022/09/22 09:56:29;;;;;;;7.65;2.20;;;17.70;94.90;;;;;;5033049;28;20377;-79
2022/09/22 10:01:43;;;;;;;6.70;2.40;;;17.90;94.00;;;;;;5050525;28;20048;-80
2022/09/22 10:04:31;;;;;;;8.13;2.28;;;18.00;93.50;;;;;;5001455;28;20052;-78
2022/09/22 10:07:15;;;;;;;6.45;2.15;;;18.10;91.50;;;;;;5018000;28;20065;-83
2022/09/22 10:09:41;;;;;;;7.30;2.30;;;18.10;91.70;;;;;;5054356;28;20396;-80
2022/09/22 10:12:20;;;;;;;8.93;2.38;;;18.20;92.10;;;;;;5037047;28;20491;-79
2022/09/22 10:14:50;;;;;;;5.75;2.47;;;18.30;92.30;;;;;;5035119;28;20098;-78
2022/09/22 10:17:30;;;;;;;7.80;2.70;;;18.30;87.70;;;;;;5036620;28;20377;-78
2022/09/22 10:20:16;;;;;;;8.13;2.63;;;18.30;90.90;;;;;;5018931;28;20048;-79
2022/09/22 10:22:42;;;;;;;7.10;2.72;;;18.30;91.60;;;;;;5053683;28;20037;-82
2022/09/22 10:25:20;;;;;;;7.50;2.80;;;18.30;91.10;;;;;;5040564;28;20038;-82
2022/09/22 10:28:08;;;;;;;7.50;1.95;;;18.40;92.00;;;;;;5029830;28;20040;-83
2022/09/22 10:30:38;;;;;;;6.43;1.85;;;18.60;91.90;;;;;;5035815;28;20358;-83
2022/09/22 10:33:20;;;;;;;9.02;2.53;;;18.80;92.00;;;;;;5037276;28;20350;-78
2022/09/22 10:36:05;;;;;;;7.78;2.03;;;18.90;88.80;;;;;;5036726;28;20049;-82
2022/09/22 10:38:39;;;;;;;9.25;2.30;;;19.00;87.50;;;;;;5042678;28;20049;-82
2022/09/22 10:41:11;;;;;;;8.73;2.47;;;19.10;90.70;;;;;;5027205;28;20052;-81
2022/09/22 10:43:59;;;;;;;8.35;2.85;;;19.10;89.30;;;;;;5024945;28;20124;-80
2022/09/22 10:46:56;;;;;;;8.73;2.42;;;19.00;87.20;;;;;;5020696;28;20460;-82
2022/09/22 10:49:46;;;;;;;7.45;2.40;;;19.10;86.50;;;;;;5042728;28;20033;-83
2022/09/22 10:52:24;;;;;;;7.00;2.13;;;19.20;84.50;;;;;;5031595;28;20048;-82
2022/09/22 10:55:09;;;;;;;5.75;1.80;;;19.20;87.70;;;;;;5053767;28;20029;-82
2022/09/22 10:57:57;;;;;;;7.78;2.60;;;19.20;84.80;;;;;;5019005;28;20048;-78
2022/09/22 11:00:24;;;;;;;8.48;2.17;;;19.30;86.30;;;;;;5050222;28;20469;-79
2022/09/22 11:03:02;;;;;;;8.13;2.47;;;19.50;84.70;;;;;;5033605;28;20515;-78
2022/09/22 11:14:26;;;;;;;7.47;2.70;;;20.00;83.20;;;;;;5048547;28;20037;-79
2022/09/22 11:17:28;;;;;;;7.68;2.63;;;20.00;79.80;;;;;;5030759;28;20045;-79
2022/09/22 11:20:03;;;;;;;6.60;2.35;;;20.10;76.40;;;;;;5052892;28;20075;-80
2022/09/22 11:22:29;;;;;;;8.55;2.80;;;19.90;74.20;;;;;;5053558;28;20080;-80
2022/09/22 11:25:12;;;;;;;6.60;2.90;;;19.80;76.80;;;;;;5053441;28;20033;-79
2022/09/22 11:28:16;;;;;;;5.78;2.42;;;19.90;77.70;;;;;;5035693;28;20047;-80
2022/09/22 11:30:49;;;;;;;5.53;2.53;;;20.20;73.60;;;;;;5033739;28;20041;-80
2022/09/22 11:33:57;;;;;;;8.38;2.80;;;20.30;73.90;;;;;;5053872;28;20040;-81
2022/09/22 11:36:38;;;;;;;6.38;2.85;;;20.50;73.20;;;;;;5040995;28;20076;-79
2022/09/22 11:39:29;;;;;;;7.72;2.90;;;20.40;72.00;;;;;;5033345;28;20068;-80
2022/09/22 11:42:13;;;;;;;8.52;3.33;;;20.10;69.30;;;;;;5033647;28;20052;-81
2022/09/22 11:44:51;;;;;;;6.03;2.90;;;19.90;72.60;;;;;;5034029;28;20053;-78
2022/09/22 11:47:54;;;;;;;8.73;3.00;;;19.90;71.40;;;;;;5052539;28;20443;-81
2022/09/22 11:50:43;;;;;;;8.45;3.35;;;19.60;73.10;;;;;;5053131;28;20045;-81
2022/09/22 11:53:19;;;;;;;7.47;2.80;;;19.40;70.70;;;;;;5049881;28;20064;-81
2022/09/22 11:55:55;;;;;;;7.97;2.75;;;19.10;70.10;;;;;;5035588;28;20044;-78
2022/09/22 11:58:26;;;;;;;6.85;3.13;;;19.20;75.00;;;;;;5034976;28;20049;-80
2022/09/22 12:01:12;;;;;;;9.05;2.92;;;19.40;69.40;;;;;;5034782;28;20072;-79
2022/09/22 12:03:48;;;;;;;6.85;3.03;;;19.70;73.00;;;;;;5046006;28;20538;-81
2022/09/22 12:06:18;;;;;;;7.00;3.00;;;19.80;73.40;;;;;;5052970;28;20040;-79
2022/09/22 12:08:53;;;;;;;10.07;3.55;;;20.00;73.00;;;;;;5033805;28;20049;-80
2022/09/22 12:11:20;;;;;;;7.13;3.28;;;20.10;70.70;;;;;;5034887;28;20032;-80
2022/09/22 12:13:49;;;;;;;6.97;3.20;;;19.90;72.90;;;;;;5051766;28;20041;-80
2022/09/22 12:16:18;;;;;;;8.30;3.63;;;19.80;72.70;;;;;;5033934;28;20048;-78
2022/09/22 12:19:18;;;;;;;7.75;3.40;;;19.80;73.60;;;;;;5052043;28;20089;-79
2022/09/22 12:22:06;;;;;;;8.88;3.28;;;19.90;69.40;;;;;;5033618;28;20049;-79
2022/09/22 12:24:33;;;;;;;7.07;3.05;;;19.90;71.60;;;;;;5034222;28;20040;-79
2022/09/22 12:27:09;;;;;;;7.13;3.10;;;20.00;71.90;;;;;;5052375;28;20048;-82
2022/09/22 12:29:37;;;;;;;6.90;3.03;;;20.10;69.70;;;;;;5036556;28;20053;-80
2022/09/22 12:32:04;;;;;;;6.45;2.80;;;20.10;67.90;;;;;;5049410;28;20049;-81
2022/09/22 12:34:38;;;;;;;8.23;3.30;;;20.00;69.80;;;;;;5051416;28;20087;-77
2022/09/22 12:37:15;;;;;;;6.78;3.05;;;20.10;70.00;;;;;;5034419;28;20040;-82
2022/09/22 12:39:47;;;;;;;6.90;2.75;;;19.90;69.30;;;;;;5032987;28;20040;-82
2022/09/22 12:42:27;;;;;;;;;;;19.70;70.90;;;;;;5033285;28;20061;-82
2022/09/22 12:45:07;;;;;;;6.18;2.83;;;19.60;71.90;;;;;;5034730;28;20309;-81
2022/09/22 12:47:39;;;;;;;8.35;2.80;;;19.40;68.00;;;;;;5031817;28;20040;-82
2022/09/22 12:50:23;;;;;;;7.47;2.88;;;19.20;72.50;;;;;;5051434;28;20118;-82
2022/09/22 12:52:52;;;;;;;7.57;3.10;;;19.00;74.40;;;;;;5033889;28;20143;-81
2022/09/22 12:55:27;;;;;;;9.40;3.05;;;19.00;74.90;;;;;;5033794;28;20083;-81
2022/09/22 12:57:54;;;;;;;7.40;2.80;;;18.80;72.50;;;;;;5051606;28;20124;-82
2022/09/22 13:00:36;;;;;;;6.38;2.75;;;18.70;74.80;;;;;;5051051;28;20051;-81
2022/09/22 13:03:23;;;;;;;6.95;2.60;;;18.60;78.40;;;;;;5015000;28;20037;-83
2022/09/22 13:05:51;;;;;;;7.22;2.75;;;18.50;76.30;;;;;;5051752;28;20064;-83
2022/09/22 13:08:37;;;;;;;8.25;3.10;;;18.60;76.60;;;;;;5033226;28;20056;-82
2022/09/22 13:11:08;;;;;;;7.05;2.92;;;18.60;76.00;;;;;;5004135;28;20044;-81
2022/09/22 13:13:45;;;;;;;6.65;3.00;;;18.60;74.80;;;;;;5031839;28;20052;-81
2022/09/22 13:16:14;;;;;;;7.07;2.72;;;18.70;74.10;;;;;;5033195;28;20488;-82
2022/09/22 13:18:42;;;;;;;9.95;2.60;;;18.60;75.40;;;;;;5032116;28;20067;-80
2022/09/22 13:21:11;;;;;;;7.47;2.90;;;18.60;74.70;;;;;;5051962;28;20041;-81
2022/09/22 13:24:01;;;;;;;7.63;2.83;;;18.70;74.40;;;;;;5017159;28;20053;-83
2022/09/22 13:26:34;;;;;;;8.40;2.80;;;18.90;74.90;;;;;;5050101;28;20045;-84
2022/09/22 13:29:11;;;;;;;7.82;3.00;;;19.00;73.30;;;;;;5048801;28;20045;-81
2022/09/22 13:31:49;;;;;;;7.07;3.08;;;19.10;74.70;;;;;;5030931;28;20060;-82
2022/09/22 13:34:28;;;;;;;7.80;2.70;;;19.30;74.50;;;;;;5033290;28;20079;-79
2022/09/22 13:37:15;;;;;;;5.53;2.80;;;19.40;72.00;;;;;;5033489;28;20156;-82